Aviation Digital Data Service (ADDS)

Output produced by METARs form (1630 UTC 30 October 2020)
found at http://www.aviationweather.gov/metar/data/
 
KCHA 301553Z 31011KT 10SM SCT028 BKN035 12/05 A3023 RMK AO2 SLP235 T01220050
KCHA 301456Z 3015/3112 34011KT P6SM SCT025 BKN035 
     FM301700 34011KT P6SM FEW040 
     FM310000 36004KT P6SM SKC